Hensel, ND

2:21 AM CDT on July 23, 2014 (GMT -0500)
Cavalier (K2C8) Elev 892 ft | 48.78 °N, 97.63 °W | Change Station

Current weather conditions updated 6 minutes ago

Clear
Clear
59 °F
Feels Like 59 °F
N
6
Wind Variable Wind from NNW

Today is forecast to be nearly the same temperature as yesterday.

Today
High -- | Low -- °F
--% Chance of Precip.
Yesterday
High -- | Low -- °F
Precip. -- in
5:52 AM 9:20 PM
Waning Crescent, 12% visible
Pressure 30.28 in
Visibility 10.0 miles
Clouds Clear
Dew Point 55 °F
Humidity 88%
Rainfall 0.00 in
Snow Depth Not available.
UV 0 out of 12
Pollen 4.00 out of 12
Air Quality Not available.
Flu Activity Not available.
METAR K2C8 230715Z AUTO 34005KT 10SM CLR 15/13 A3028 RMK AO2

More Conditions Fewer Conditions

Pressure 30.28 in
Visibility 10.0 miles
Clouds Clear
Dew Point 55 °F
Humidity 88%
Rainfall 0.00 in
Snow Depth Not available.
UV 0 out of 12
Pollen 4.00 out of 12
Air Quality Not available.
Flu Activity Not available.
METAR K2C8 230715Z AUTO 34005KT 10SM CLR 15/13 A3028 RMK AO2

More Conditions Fewer Conditions

10-Day Weather Forecast

Almanac

Astronomy

Jul. 23, 2014 Rise Set
Actual Time 5:52 AM CDT 9:20 PM CDT
Civil Twilight 5:14 AM CDT 9:58 PM CDT
Nautical Twilight 4:22 AM CDT 10:49 PM CDT
Astronomical Twilight 3:12 AM CDT 11:58 PM CDT
Moon 3:15 AM CDT 6:47 PM CDT
Length of Visible Light 16h 44m
Length of Day
15h 27m
Tomorrow will be 2m 25s shorter.
Waning Crescent, 12% of the Moon is Illuminated
Today
Waning Crescent
Jul 26
New
Aug 3
First Quarter
Aug 10
Full
Aug 17
Last Quarter

Today's Extremes

State Highs State Lows

Community

WunderPhotos

Upload Photos

1,736,527 photos uploaded!

Nearby

Snow Depth

Station Depth Elevation
No new snow has been reported.

Earthquake Activity

City Distance Mag. Time & Date
No recent earthquake activity has been reported nearby.
Minimum magnitude displayed is 2.5.

Coastal Water Temperatures

Place Temperature
No Stations Reporting

Nearby Weather Stations

Station Location Temp. Dew Point Humidity Wind Precip. Elev Updated Type
Hoople nd, Hoople, ND 56.5 °F 54 °F 91% WNW  at  2.0 mph 0.00 in / hr 870 ft 2:10 AM CDT Normal

Show More Stations Show Fewer Stations